Frankfort, MI

12:00 PM EST on December 12, 2019 (GMT -0500)
Frankfort

Weather History for KFKS - October, 2019

Change the Weather History Date:

Tuesday, October 1, 2019

  Actual Average (KMBL) Record (KMBL)
Temperature  
Mean Temperature 68 °F -  
Max Temperature 79 °F 66 °F 82 °F (1971)
Min Temperature 57 °F 45 °F 30 °F (1997)
Cooling Degree Days 3    
Growing Degree Days 18 (Base 50)    
Moisture  
Dew Point 63 °F    
Average Humidity 78    
Maximum Humidity 88    
Minimum Humidity 63    
Precipitation  
Precipitation 0.00 in - - ()
Sea Level Pressure  
Sea Level Pressure 29.90 in    
Wind  
Wind Speed 10 mph (SSW)    
Max Wind Speed 17 mph    
Max Gust Speed 26 mph    
Visibility 8 miles    
Events Rain    
Averages and records for this station are not official NWS values.
T = Trace of Precipitation, MM = Missing Value Source: NWS Daily Summary

Daily Weather History Graph

Daily Weather History Graph

Search for Another Location

Airport or City:

Astronomy

Oct. 01, 2019 Rise Set
Actual Time 7:42 AM EDT 7:25 PM EDT
Civil Twilight 7:13 AM EDT 7:54 PM EDT
Nautical Twilight 6:39 AM EDT 8:28 PM EDT
Astronomical Twilight 6:05 AM EDT 9:02 PM EDT
Moon 11:04 AM EDT (10/1) 9:30 PM EDT (10/1)
Length of Visible Light 12h 41m
Length of Day
11h 43m
Waxing Crescent, 12% of the Moon is Illuminated
Oct 1
Waxing Crescent
Oct 5
First Quarter
Oct 13
Full
Oct 21
Last Quarter
Oct 27
New

Hourly Weather History & Observations

Time (EDT) Temp. Dew Point Humidity Pressure Visibility Wind Dir Wind Speed Gust Speed Precip Events Conditions
12:16 AM 79.2 °F 65.7 °F 63% 29.87 in 10.0 mi South 17.3 mph 23.0 mph N/A   Overcast
12:35 AM 78.6 °F 65.7 °F 64% 29.87 in 10.0 mi South 12.7 mph 25.3 mph N/A   Overcast
12:36 AM 78.6 °F 65.5 °F 64% 29.87 in 10.0 mi South 13.8 mph 25.3 mph N/A   Overcast
12:55 AM 78.1 °F 65.7 °F 65% 29.85 in 10.0 mi South 13.8 mph 24.2 mph N/A   Mostly Cloudy
12:56 AM 78.1 °F 65.7 °F 65% 29.85 in 10.0 mi South 13.8 mph 24.2 mph N/A   Mostly Cloudy
1:19 AM 78.1 °F 65.8 °F 66% 29.85 in 10.0 mi South 11.5 mph 26.5 mph N/A   Clear
1:37 AM 77.9 °F 65.8 °F 66% 29.84 in 10.0 mi South 15.0 mph 26.5 mph N/A   Clear
1:55 AM 77.9 °F 66.0 °F 67% 29.84 in 10.0 mi South 11.5 mph 23.0 mph N/A   Scattered Clouds
2:16 AM 78.4 °F 65.8 °F 65% 29.85 in 10.0 mi South 11.5 mph 20.7 mph N/A   Scattered Clouds
2:35 AM 78.6 °F 65.8 °F 65% 29.86 in 10.0 mi SSW 12.7 mph 21.9 mph N/A   Mostly Cloudy
2:40 AM 78.8 °F 65.8 °F 64% 29.87 in 10.0 mi South 13.8 mph 21.9 mph N/A   Mostly Cloudy
2:58 AM 78.8 °F 65.7 °F 64% 29.86 in 10.0 mi SSW 11.5 mph 21.9 mph N/A   Overcast
3:16 AM 78.8 °F 65.5 °F 64% 29.86 in 10.0 mi SSW 12.7 mph 20.7 mph N/A   Overcast
3:35 AM 78.3 °F 65.3 °F 64% 29.85 in 10.0 mi South 10.4 mph 20.7 mph N/A   Overcast
3:55 AM 77.5 °F 65.3 °F 66% 29.85 in 10.0 mi SSW 9.2 mph 17.3 mph N/A   Overcast
3:56 AM 77.5 °F 65.3 °F 66% 29.85 in 10.0 mi South 9.2 mph 17.3 mph N/A   Overcast
4:18 AM 77.9 °F 65.3 °F 65% 29.85 in 10.0 mi SSW 8.1 mph 18.4 mph N/A   Overcast
4:37 AM 77.4 °F 65.3 °F 66% 29.86 in 10.0 mi SSW 9.2 mph 20.7 mph N/A   Overcast
4:55 AM 77.0 °F 65.3 °F 67% 29.85 in 10.0 mi SSW 9.2 mph 17.3 mph N/A   Overcast
5:15 AM 75.7 °F 65.1 °F 69% 29.85 in 10.0 mi SSW 9.2 mph 18.4 mph N/A   Scattered Clouds
5:16 AM 75.7 °F 65.1 °F 69% 29.85 in 10.0 mi SSW 11.5 mph 18.4 mph N/A   Scattered Clouds
5:35 AM 75.2 °F 64.9 °F 70% 29.85 in 10.0 mi SSW 9.2 mph 19.6 mph N/A   Clear
5:58 AM 74.3 °F 64.8 °F 72% 29.85 in 10.0 mi SW 4.6 mph - N/A   Clear
6:16 AM 73.8 °F 64.8 °F 73% 29.83 in 10.0 mi SSW 5.8 mph - N/A   Clear
6:35 AM 73.6 °F 64.9 °F 74% 29.84 in 10.0 mi SW 6.9 mph - N/A   Clear
6:36 AM 73.6 °F 64.9 °F 74% 29.84 in 10.0 mi SSW 9.2 mph - N/A   Clear
6:55 AM 73.4 °F 64.8 °F 74% 29.84 in 10.0 mi SSW 5.8 mph - N/A   Clear
7:19 AM 73.6 °F 64.9 °F 74% 29.85 in 10.0 mi Calm Calm - N/A   Clear
7:37 AM 73.4 °F 64.9 °F 75% 29.86 in 10.0 mi SSW 6.9 mph - N/A   Clear
7:55 AM 73.2 °F 64.8 °F 75% 29.88 in 10.0 mi SSW 9.2 mph 18.4 mph N/A   Clear
7:56 AM 73.2 °F 64.8 °F 75% 29.88 in 10.0 mi SSW 8.1 mph 18.4 mph N/A   Clear
8:15 AM 72.7 °F 64.9 °F 77% 29.89 in 10.0 mi SSW 10.4 mph 19.6 mph N/A   Scattered Clouds
8:35 AM 73.0 °F 65.3 °F 77% 29.89 in 10.0 mi SW 6.9 mph - N/A   Mostly Cloudy
8:58 AM 72.9 °F 65.3 °F 77% 29.89 in 10.0 mi SW 5.8 mph - N/A   Clear
9:16 AM 72.5 °F 65.3 °F 78% 29.89 in 10.0 mi SSW 3.5 mph - N/A   Scattered Clouds
9:35 AM 72.7 °F 66.2 °F 80% 29.88 in 7.0 mi Calm Calm - N/A Rain Rain
9:36 AM 72.7 °F 66.2 °F 80% 29.87 in 7.0 mi Calm Calm - N/A Rain Rain
9:55 AM 72.5 °F 66.6 °F 82% 29.89 in 10.0 mi West 5.8 mph - N/A Rain Light Rain
10:19 AM 71.8 °F 66.4 °F 83% 29.90 in 10.0 mi WSW 8.1 mph - N/A   Scattered Clouds
10:37 AM 70.7 °F 65.7 °F 84% 29.91 in 7.0 mi West 3.5 mph - N/A Rain Light Rain
10:55 AM 70.7 °F 65.8 °F 85% 29.90 in 7.0 mi Calm Calm - N/A Rain Light Rain
10:56 AM 70.7 °F 65.7 °F 84% 29.90 in 7.0 mi Calm Calm - N/A Rain Light Rain
11:15 AM 71.6 °F 67.1 °F 86% 29.93 in 5.0 mi WNW 8.1 mph - N/A Rain Rain
11:16 AM 71.6 °F 67.1 °F 86% 29.93 in 5.0 mi WNW 10.4 mph - N/A Rain Rain
11:35 AM 72.5 °F 68.2 °F 86% 29.90 in 3.0 mi NW 9.2 mph 18.4 mph N/A Rain Heavy Rain
11:58 AM 70.7 °F 66.0 °F 85% 29.91 in 7.0 mi North 12.7 mph 23.0 mph N/A Rain Rain
12:15 PM 68.9 °F 63.9 °F 84% 29.91 in 10.0 mi NE 12.7 mph 20.7 mph N/A Rain Light Rain
12:35 PM 68.9 °F 64.0 °F 84% 29.91 in 10.0 mi ENE 3.5 mph - N/A Rain Light Rain
12:36 PM 68.9 °F 64.0 °F 84% 29.91 in 10.0 mi ENE 3.5 mph - N/A Rain Rain
12:59 PM 70.0 °F 64.9 °F 84% 29.91 in 10.0 mi ESE 4.6 mph - N/A   Scattered Clouds
1:37 PM 69.8 °F 64.4 °F 83% 29.93 in 10.0 mi SE 4.6 mph - N/A Rain Light Rain
2:17 PM 71.6 °F 66.2 °F 83% 29.93 in 10.0 mi SE 4.6 mph - N/A Rain Light Rain
2:57 PM 69.8 °F 66.2 °F 88% 29.93 in 10.0 mi West 4.6 mph - N/A   Light Drizzle
3:37 PM 69.8 °F 64.4 °F 83% 29.91 in 5.0 mi Calm Calm - N/A Rain Rain
3:50 PM 69.8 °F 65.7 °F 87% 29.89 in 7.0 mi Calm Calm - N/A Rain Rain
3:58 PM 68.9 °F 64.6 °F 86% 29.89 in 10.0 mi North 6.9 mph - N/A Rain Light Rain
4:16 PM 66.2 °F 61.9 °F 86% 29.90 in 10.0 mi North 6.9 mph - N/A Rain Light Rain
4:35 PM 65.7 °F 61.5 °F 86% 29.89 in 7.0 mi North 5.8 mph 17.3 mph N/A Rain Rain
4:55 PM 65.8 °F 61.7 °F 86% 29.90 in 3.0 mi North 3.5 mph - N/A Rain Light Rain
4:56 PM 66.0 °F 61.7 °F 86% 29.90 in 3.0 mi NNE 5.8 mph - N/A Rain Light Rain
5:19 PM 65.7 °F 61.3 °F 86% 29.92 in 4.0 mi NNE 6.9 mph - N/A   Haze
5:37 PM 64.8 °F 60.6 °F 86% 29.92 in 3.0 mi NNE 9.2 mph - N/A   Overcast
5:55 PM 63.7 °F 59.2 °F 85% 29.93 in 4.0 mi NNE 9.2 mph - N/A   Haze
5:56 PM 63.7 °F 59.2 °F 85% 29.93 in 4.0 mi NNE 8.1 mph - N/A   Haze
6:15 PM 63.5 °F 59.0 °F 85% 29.93 in 2.0 mi NNE 5.8 mph - N/A   Overcast
6:16 PM 63.5 °F 59.0 °F 85% 29.92 in 2.0 mi NNE 6.9 mph - N/A   Overcast
6:35 PM 63.1 °F 58.6 °F 85% 29.94 in 2.5 mi NNE 6.9 mph - N/A   Overcast
6:40 PM 63.0 °F 58.5 °F 85% 29.94 in 2.5 mi NNE 5.8 mph - N/A   Overcast
6:58 PM 63.0 °F 58.6 °F 86% 29.91 in 3.0 mi NE 6.9 mph - N/A Rain Rain
7:16 PM 63.0 °F 58.6 °F 86% 29.93 in 4.0 mi NNE 4.6 mph - N/A Rain Light Rain
7:35 PM 62.8 °F 58.1 °F 85% 29.94 in 7.0 mi NNE 4.6 mph - N/A   Overcast
7:55 PM 62.1 °F 57.4 °F 85% 29.94 in 5.0 mi NNE 8.1 mph - N/A Rain Light Rain
7:56 PM 62.1 °F 57.4 °F 85% 29.94 in 5.0 mi NNE 5.8 mph - N/A Rain Light Rain
8:19 PM 61.2 °F 56.3 °F 84% 29.98 in 7.0 mi North 6.9 mph 16.1 mph N/A Rain Rain
8:37 PM 60.8 °F 55.9 °F 84% 29.97 in 5.0 mi NE 5.8 mph - N/A Rain Rain
8:55 PM 60.3 °F 55.6 °F 85% 29.94 in 5.0 mi NE 9.2 mph - N/A Rain Heavy Rain
9:15 PM 59.9 °F 55.2 °F 84% 29.95 in 10.0 mi NNE 10.4 mph 19.6 mph N/A Rain Light Rain
9:35 PM 59.5 °F 54.3 °F 83% 29.96 in 10.0 mi NNE 8.1 mph 16.1 mph N/A Rain Light Rain
9:58 PM 59.0 °F 53.4 °F 82% 29.95 in 10.0 mi NNE 8.1 mph - N/A Rain Rain
10:16 PM 58.6 °F 53.1 °F 82% 29.95 in 10.0 mi NE 10.4 mph 16.1 mph N/A Rain Light Rain
10:35 PM 58.5 °F 52.5 °F 81% 29.97 in 10.0 mi NE 4.6 mph 16.1 mph N/A   Overcast
10:55 PM 58.1 °F 51.8 °F 80% 29.96 in 10.0 mi NNE 5.8 mph - N/A Rain Light Rain
11:19 PM 57.7 °F 52.2 °F 82% 29.95 in 10.0 mi NE 8.1 mph - N/A Rain Light Rain
11:37 PM 57.9 °F 52.2 °F 81% 29.95 in 10.0 mi NE 9.2 mph - N/A   Overcast
11:55 PM 57.9 °F 52.0 °F 81% 29.94 in 10.0 mi NE 11.5 mph 17.3 mph N/A   Overcast